Logo AVAMET
Benvolgut visitant, si us plau, ingressa Recuperar contrasenya

Bunyol Camp de Futbol

Dades diàries. Acumulats / Últims 30 dies disponibles

Data Temperatura (°C) Humitat rel. (%) Pressió rel. (hPa) Vent (km/h) Precipitació
Mínima Mitjana Màxima Amplitud
tèrmica
Mínima Mitjana Màxima Mínima Mitjana Màxima Predom. Mitjana Ràfega
màxima
Total
(mm)
Índex-n
Mínima Mitjana Màxima Mínima Mitjana Màxima n
0 a 1
P0 max
mm 5'
Dades mensuals acumulades fins l'últim dia disponible
07/2019 18,5 20,2 23,1 25,7 26,0 31,5 36,9 18,4 7 66 100 1.013 1.017 1.021   8,8 43,1 3,0
Dades anuals acumulades fins l'últim dia disponible
2019 1,1 10,4 23,1 15,3 10,5 21,3 37,2 36,1 7 63 100 969 1.019 1.035   9,0 87,0 130,0
Últims 30 dies disponibles
19-07-2019 19,0     24,3     30,8 11,8 52 71 94 1.017 1.018 1.020 SE 6,5 20,9 0,0
18-07-2019 18,8     24,4     30,9 12,1 52 69 86 1.016 1.018 1.019 SSE 6,4 28,3 0,0
17-07-2019 19,0     26,5     30,9 11,9 49 66 79 1.015 1.017 1.019 ENE 9,8 29,8 0,0
16-07-2019 20,6     23,7     26,0 5,4 76 84 100 1.017 1.019 1.019 SE 8,4 16,5 0,0
15-07-2019 20,0     25,5     32,2 12,2 45 74 95 1.013 1.014 1.017 SSE 6,7 26,3 0,0
14-07-2019 20,1     24,6     30,7 10,6 46 75 93 1.013 1.014 1.016 S 7,5 37,7 0,0
13-07-2019 23,1     26,5     30,6 7,5 43 62 94 1.015 1.017 1.019 ESE 7,0 21,6 0,0
12-07-2019 21,8     28,1     36,3 14,5 33 50 66 1.017 1.018 1.019 SSE 6,3 36,3 0,0
11-07-2019 19,3     26,9     34,6 15,3 33 61 100 1.016 1.017 1.018 SSE 6,9 43,1 0,0
10-07-2019 19,1     24,0     30,3 11,2 53 79 97 1.016 1.017 1.019 SSE 6,5 38,1 0,0
09-07-2019 19,3     24,7     32,6 13,3 7 67 100 1.014 1.015 1.017 SSO 9,2 31,6 0,0
08-07-2019 21,3     23,7     26,8 5,5 74 90 100 1.014 1.015 1.018 ESE 5,7 24,8 1,0
07-07-2019 22,7     28,9     36,2 13,5 19 48 95 1.013 1.015 1.017 SSO 9,5 35,9 1,0
06-07-2019 21,3     29,1     36,9 15,6 36 64 90 1.014 1.015 1.016 S 4,6 22,6 1,0
04-07-2019 18,7     27,7     30,4 11,7 38 46 51 1.018 1.019 1.020 O 14,4 12,6 0,0
03-07-2019 18,5     25,0     30,5 12,0 38 57 81 1.016 1.017 1.018 O 14,4 12,6 0,0
02-07-2019 20,5     24,4     30,0 9,5 39 76 100 1.017 1.018 1.020 O 14,4 12,6 0,0
01-07-2019 20,7     25,0     30,7 10,0 42 56 97 1.018 1.019 1.021 O 14,4 12,6 0,0
30-06-2019 20,3     27,1     33,9 13,6 12 32 52 1.019 1.020 1.021 O 14,4 12,6 0,0
29-06-2019 19,4     28,4     37,2 17,8 7 25 49 1.017 1.018 1.020 O 11,9 31,3 0,0
28-06-2019 20,8     27,8     35,4 14,6 7 44 68 1.018 1.020 1.022 S 6,2 30,9 0,0
27-06-2019 20,2     25,5     30,9 10,7 41 64 100 1.021 1.022 1.024 E 6,9 27,4 0,0
26-06-2019 20,0     22,9     27,9 7,9 63 89 100 1.020 1.021 1.023 ENE 7,8 27,8 0,0
25-06-2019 17,2     21,7     28,0 10,8 66 85 100 1.017 1.019 1.021 SE 6,2 27,4 0,0
24-06-2019 17,5     22,6     27,9 10,4 36 59 76 1.016 1.017 1.019 SSE 6,5 22,6 0,0
23-06-2019 16,1     23,0     29,8 13,7 35 63 91 1.016 1.017 1.019 SE 6,3 27,8 0,0
22-06-2019 16,4     21,3     27,2 10,8 58 79 97 1.017 1.019 1.020 SSE 6,3 35,2 0,0
21-06-2019 18,5     20,9     25,4 6,9 71 88 100 1.016 1.017 1.020 ESE 6,6 31,6 0,0
20-06-2019 18,1     21,7     25,5 7,4 52 69 100 1.014 1.015 1.017 SE 6,7 23,3 0,0
19-06-2019 18,6     25,4     33,7 15,1 7 37 74 1.014 1.015 1.016 SO 7,7 42,0 0,0
Últims 13 mesos disponibles
06/2019 9,7 16,0 20,8 21,6 20,6 27,7 37,2 27,5 25 61 92 1.011 1.018 1.023 SSE 7,9 69,4 1,0
05/2019 6,3 11,9 15,1 16,8 17,9 22,8 27,7 21,4 46 69 96 1.009 1.017 1.025 S 7,0 60,3 9,0
04/2019 6,4 9,4 11,7 13,3 12,2 18,6 27,7 21,3 33 72 100 1.002 1.014 1.026 SO 9,5 64,4 117,0
03/2019 4,3 8,0 12,8 13,2 10,5 19,6 26,0 21,7 27 55 99 1.012 1.023 1.030 S 8,1 67,9
02/2019 2,5 6,0 10,7 11,1 10,8 17,6 26,1 23,6 25 62 92 997 1.025 1.033 SSO 9,1 87,0
01/2019 1,1 5,2 10,0 9,5 10,8 15,9 21,9 20,8 35 58 81 1.004 1.019 1.030 OSO 12,4 85,8
12/2018 4,0 7,3 11,5 11,6 12,5 17,8 25,1 21,1 36 72 95 1.009 1.025 1.030 OSO 11,8 70,5 3,0
11/2018 5,7 9,7 14,1 12,7 12,0 16,8 23,1 17,4 48 81 100 1.004 1.016 1.025 OSO 9,0 69,7 151,8
10/2018 4,6 12,9 17,1 16,7 10,9 21,6 30,9 26,3 43 79 100 1.002 1.016 1.024 7,6 67,5 72,7
09/2018 14,6 18,5 21,4 22,3 21,0 27,6 32,8 18,2 54 86 99 1.015 1.021 1.030 5,5 66,8 31,7
08/2018 17,9 20,9 23,6 25,2 25,4 31,4 36,1 18,2 46 75 92 1.016 1.019 1.024 6,5 51,8 20,7
07/2018 17,8 20,0 22,0 25,6 25,9 31,7 37,4 19,6 24 66 90 1.013 1.018 1.022 7,5 47,4 0,0
06/2018 13,1 16,7 20,3 21,7 20,1 27,5 32,4 19,3 43 67 93 1.013 1.017 1.023 7,5 47,2 44,5
Tots els anys disponibles
2017 -1,4 9,5 24,4 12,3 0,6 15,6 29,4 30,8 19 60 97 501 958 1.015 50,0
2016 0,9 8,6 27,3 13,1 7,7 17,5 38,1 37,2 20 58 93 981 1.009 1.027 99,0
2015 5,7 15,4 26,9 20,4 7,1 25,4 41,2 35,5 2 63 98 -49 957 1.066 71,0
2014 3,2 13,6 25,4 18,6 8,3 23,6 38,7 35,5 19 58 94 976 1.007 1.019 105,0
Temperatura (°C)
Humitat relativa (%)
Velocitat del vent i ràfega màxima (km/h)
Direcció del vent (°)
Pressió (hPa)
Precipitació (mm)
Nota sobre les dades: s'avisa a l'usuari de la provisionalitat i no oficialitat d'aquestes dades
Logo AVAMET blanc
Web allotjada a Sollutia
Llicència de Creative CommonsLa web d'AVAMET i els seus continguts estan subjectes a una llicència de
Reconeixement - No Comercial - Compartir igual
Properes estacions: Altea - Club Nàutic d'Altea (Soci), Ares del Maestrat (Ajuntament Soci),      - - - - -      Últimes estacions: Catadau - Urb. Lloma Molina (Inforatge), Ontinyent - El Pilar (Soci), Asp - Poliesportiu (Soci) - - -